LEGR/GRX METAR and TAF weather

Enter ICAO airport designator
Station Type Date Time Source
LEGR METAR 2020/09/18 19:30 UTC NOAA

LEGR 181930Z 25010KT 9999 FEW050 20/15 Q1018


Station Type Date Time Source
LEGR Decoded METAR 2020/09/18 19:30 UTC NOAA

Granada / Aeropuerto, Spain (LEGR) 37-11N 003-47W 570M
Sep 18, 2020 - 03:30 PM EDT / 2020.09.18 1930 UTC
Wind: from the WSW (250 degrees) at 12 MPH (10 KT):0
Visibility: greater than 7 mile(s):0
Sky conditions: mostly clear
Temperature: 68 F (20 C)
Dew Point: 59 F (15 C)
Relative Humidity: 72%
Pressure (altimeter): 30.06 in. Hg (1018 hPa)
ob: LEGR 181930Z 25010KT 9999 FEW050 20/15 Q1018
cycle: 19

Station Type Date Time Source
LEGR TAF 2020/09/18 15:49 UTC NOAA

TAF
AMD LEGR 181537Z 1815/1915 20012KT 9999 FEW030 SCT060 TX29/1915Z TN16/1906Z PROB30
TEMPO 1815/1820 21015G25KT 4000 SHRA FEW030TCU SCT045
BECMG 1822/1824 VRB03KT
BECMG 1912/1914 28010KT

Example: see airport list